Pendleton, New York
Current Conditions -  °F | °C
As of 11:00 AM on Thursday 27 Nov 2014 (Local Time) from KIAG Reporting Station
Broken Clouds Broken Clouds  
Wind Chill: 24°   Ceiling: 6500
Heat Index: 30°   Visibility: 8mi
Dew Point: 24°   Wind: 6mph
Humidity: 79%   Direction: 200°SSW
Pressure: 30.07"   Gusts: NA
Location:  43.0772°N, 78.8339°W
Report Text: KIAG 271600Z 20005KT 8SM SCT025 BKN065 BKN150 M01/M04 A3007 RMK AO2 T10111044
Loading
Personal Weather Stations






























Interactive Weather Map New forecast layout! Learn more

10-Day Weather Forecast

Advertisements
Track Severe Weather on mobile